Time;durP1;ratioP1;P1;durP2;ratioP2;P2;SDS_P1;SDS_P2;PMS_P1;PMS_P2;Temp;Humidity;BMP_temperature;BMP_pressure;BME280_temperature;BME280_humidity;BME280_pressure;Samples;Min_cycle;Max_cycle;Signal;HPM_P1;HPM_P2
2022/07/31 00:01:23;;;;;;;23.65;15.35;;;23.90;54.20;;;;;;5012911;28;20021;-72
2022/07/31 00:03:48;;;;;;;21.02;9.60;;;23.90;54.70;;;;;;4996589;28;20166;-71
2022/07/31 00:06:16;;;;;;;13.85;6.38;;;23.90;54.70;;;;;;4993273;28;20053;-71
2022/07/31 00:08:42;;;;;;;12.65;5.93;;;23.90;54.60;;;;;;4993983;28;20049;-71
2022/07/31 00:11:10;;;;;;;11.98;6.53;;;23.90;54.70;;;;;;4994220;28;20030;-79
2022/07/31 00:13:36;;;;;;;19.00;8.18;;;23.90;54.60;;;;;;4992629;28;20052;-78
2022/07/31 00:16:02;;;;;;;16.98;7.85;;;23.90;54.70;;;;;;5009266;28;20026;-79
2022/07/31 00:18:28;;;;;;;16.20;9.98;;;23.90;54.50;;;;;;5013429;28;20497;-79
2022/07/31 00:20:54;;;;;;;18.55;10.77;;;23.90;54.00;;;;;;5012336;28;20049;-79
2022/07/31 00:23:20;;;;;;;13.57;6.88;;;24.00;54.00;;;;;;5013401;28;20034;-79
2022/07/31 00:25:46;;;;;;;15.68;8.05;;;24.00;54.30;;;;;;5011830;28;20101;-79
2022/07/31 00:28:11;;;;;;;16.13;8.38;;;24.00;54.00;;;;;;4995537;28;20034;-79
2022/07/31 00:30:37;;;;;;;15.20;7.45;;;24.00;53.90;;;;;;4995566;28;20034;-78
2022/07/31 00:33:03;;;;;;;18.05;8.10;;;24.10;54.30;;;;;;5011605;28;20125;-81
2022/07/31 00:35:29;;;;;;;17.20;7.55;;;24.10;54.80;;;;;;5010771;28;20030;-79
2022/07/31 00:37:55;;;;;;;22.48;9.18;;;24.10;54.40;;;;;;5011165;28;20061;-78
2022/07/31 00:40:21;;;;;;;22.30;7.80;;;24.10;54.40;;;;;;5012810;28;20399;-78
2022/07/31 00:42:46;;;;;;;23.08;8.80;;;24.10;54.40;;;;;;5011139;28;20017;-78
2022/07/31 00:45:12;;;;;;;21.48;9.60;;;24.20;54.50;;;;;;5012179;28;20017;-77
2022/07/31 00:47:38;;;;;;;20.65;8.63;;;24.20;54.60;;;;;;5011622;28;20494;-77
2022/07/31 00:50:05;;;;;;;22.80;9.23;;;24.20;54.60;;;;;;5011279;28;20156;-77
2022/07/31 00:52:30;;;;;;;19.52;9.18;;;24.20;54.60;;;;;;5011250;28;20033;-77
2022/07/31 00:54:56;;;;;;;22.15;9.20;;;24.20;54.60;;;;;;5010925;28;20026;-77
2022/07/31 00:57:22;;;;;;;21.65;9.20;;;24.20;54.50;;;;;;5010767;28;20021;-77
2022/07/31 00:59:48;;;;;;;17.10;8.45;;;24.20;54.60;;;;;;4994967;28;20497;-77
2022/07/31 01:02:14;;;;;;;20.60;8.32;;;24.20;54.60;;;;;;5010812;28;20018;-77
2022/07/31 01:04:42;;;;;;;18.73;8.13;;;24.20;54.60;;;;;;5010876;28;20034;-77
2022/07/31 01:07:08;;;;;;;19.83;8.45;;;24.20;54.50;;;;;;4994075;28;20033;-77
2022/07/31 01:09:34;;;;;;;19.02;8.00;;;24.20;54.50;;;;;;5010669;28;20052;-77
2022/07/31 01:12:19;;;;;;;18.77;7.78;;;24.20;54.50;;;;;;5010963;28;20100;-77
2022/07/31 01:14:52;;;;;;;15.82;7.95;;;24.20;54.50;;;;;;4993008;28;20624;-77
2022/07/31 01:17:21;;;;;;;16.95;7.70;;;24.20;54.50;;;;;;5010184;28;20034;-77
2022/07/31 01:19:49;;;;;;;16.80;7.60;;;24.20;55.10;;;;;;4994306;28;20025;-77
2022/07/31 01:22:44;;;;;;;21.85;8.02;;;24.20;54.50;;;;;;4993474;28;20077;-78
2022/07/31 01:25:27;;;;;;;18.40;8.18;;;24.20;54.50;;;;;;5010015;28;20030;-77
2022/07/31 01:28:38;;;;;;;20.52;7.45;;;24.20;54.50;;;;;;4996830;28;20037;-77
2022/07/31 01:31:13;;;;;;;18.02;7.55;;;24.20;54.50;;;;;;5000636;28;20041;-77
2022/07/31 01:33:49;;;;;;;16.77;7.43;;;24.20;54.50;;;;;;5011208;28;20125;-77
2022/07/31 01:36:19;;;;;;;15.35;7.40;;;24.20;54.50;;;;;;5010795;28;20038;-82
2022/07/31 01:38:49;;;;;;;17.27;6.88;;;24.20;54.30;;;;;;5010454;28;20046;-74
2022/07/31 01:41:19;;;;;;;14.60;6.53;;;24.20;54.60;;;;;;5010409;28;20022;-74
2022/07/31 01:43:47;;;;;;;14.70;6.30;;;24.20;54.80;;;;;;5011530;28;20033;-74
2022/07/31 01:46:17;;;;;;;16.08;6.65;;;24.10;54.50;;;;;;5009490;28;20018;-74
2022/07/31 01:48:44;;;;;;;12.65;5.95;;;24.00;54.60;;;;;;5010135;28;20068;-74
2022/07/31 01:51:12;;;;;;;12.45;6.00;;;24.00;54.80;;;;;;5010412;28;20065;-74
2022/07/31 01:53:39;;;;;;;13.00;4.82;;;24.00;55.10;;;;;;5009887;28;20030;-74
2022/07/31 01:56:06;;;;;;;10.20;4.50;;;24.00;55.00;;;;;;5009718;28;20061;-74
2022/07/31 01:58:46;;;;;;;12.20;4.70;;;24.00;55.30;;;;;;5007549;28;20384;-74
2022/07/31 02:01:51;;;;;;;10.73;4.70;;;23.90;55.40;;;;;;4968578;28;20061;-73
2022/07/31 02:04:18;;;;;;;10.25;4.57;;;23.90;55.40;;;;;;4990961;28;20041;-75
2022/07/31 02:06:47;;;;;;;10.40;4.63;;;23.90;55.60;;;;;;5009663;28;20037;-74
2022/07/31 02:09:16;;;;;;;7.82;3.95;;;23.90;55.50;;;;;;5010450;28;20030;-74
2022/07/31 02:11:44;;;;;;;8.70;3.83;;;23.90;55.70;;;;;;4993841;28;20030;-75
2022/07/31 02:14:10;;;;;;;9.98;4.32;;;23.90;55.90;;;;;;4993580;28;20030;-75
2022/07/31 02:16:37;;;;;;;7.70;4.03;;;23.90;55.90;;;;;;5009855;28;20018;-74
2022/07/31 02:19:13;;;;;;;7.53;3.58;;;23.90;56.00;;;;;;4993923;28;20030;-74
2022/07/31 02:21:40;;;;;;;5.50;3.53;;;23.80;56.10;;;;;;5010992;28;20022;-74
2022/07/31 02:24:07;;;;;;;9.50;3.97;;;23.80;56.00;;;;;;5011317;28;20150;-74
2022/07/31 02:26:35;;;;;;;11.43;3.88;;;23.80;56.00;;;;;;5013518;28;20029;-74
2022/07/31 02:29:02;;;;;;;7.93;3.50;;;23.80;56.00;;;;;;5013744;28;20029;-75
2022/07/31 02:31:31;;;;;;;5.95;3.60;;;23.80;56.00;;;;;;5013941;28;20021;-75
2022/07/31 02:33:57;;;;;;;6.77;3.40;;;23.80;56.10;;;;;;5013518;28;20107;-74
2022/07/31 02:36:24;;;;;;;8.40;3.65;;;23.80;56.20;;;;;;5013332;28;20276;-74
2022/07/31 02:38:53;;;;;;;7.80;3.97;;;23.80;56.20;;;;;;5013689;28;20042;-74
2022/07/31 02:41:20;;;;;;;6.75;3.88;;;23.80;56.10;;;;;;5013444;28;20030;-74
2022/07/31 02:43:47;;;;;;;6.25;3.60;;;23.80;56.10;;;;;;5002049;28;20036;-74
2022/07/31 02:46:21;;;;;;;6.13;3.38;;;23.80;56.20;;;;;;5011503;28;20046;-74
2022/07/31 02:48:49;;;;;;;7.47;3.63;;;23.80;56.20;;;;;;4996124;28;20508;-74
2022/07/31 02:51:15;;;;;;;8.45;3.88;;;23.80;56.30;;;;;;4989188;28;20034;-75
2022/07/31 02:53:42;;;;;;;5.45;3.20;;;23.80;56.30;;;;;;4996238;28;20506;-75
2022/07/31 02:56:09;;;;;;;9.18;3.25;;;23.80;56.20;;;;;;5012306;28;20048;-74
2022/07/31 02:58:40;;;;;;;5.38;3.47;;;23.70;56.20;;;;;;5013310;28;20026;-74
2022/07/31 03:01:07;;;;;;;;;;;23.80;56.40;;;;;;5013599;28;20030;-74
2022/07/31 03:03:34;;;;;;;6.45;3.25;;;23.70;56.20;;;;;;4996819;28;19999;-74
2022/07/31 03:06:00;;;;;;;7.22;3.42;;;23.80;56.30;;;;;;5011917;28;20110;-74
2022/07/31 03:08:27;;;;;;;7.00;3.35;;;23.70;56.40;;;;;;4995796;28;20490;-74
2022/07/31 03:10:54;;;;;;;7.03;2.95;;;23.70;56.30;;;;;;5012226;28;20088;-74
2022/07/31 03:13:27;;;;;;;6.90;3.50;;;23.70;56.60;;;;;;5011890;28;20026;-74
2022/07/31 03:15:54;;;;;;;6.38;3.33;;;23.70;56.40;;;;;;5012422;28;20034;-74
2022/07/31 03:18:21;;;;;;;10.77;3.90;;;23.70;56.50;;;;;;5011748;28;20033;-74
2022/07/31 03:20:50;;;;;;;10.15;3.67;;;23.70;56.60;;;;;;5010757;28;20065;-74
2022/07/31 03:23:17;;;;;;;;;;;23.70;56.40;;;;;;5012068;28;20076;-74
2022/07/31 03:25:51;;;;;;;5.90;3.17;;;23.70;56.60;;;;;;4995263;28;19917;-73
2022/07/31 03:28:18;;;;;;;5.70;3.10;;;23.70;56.70;;;;;;5010510;28;20072;-73
2022/07/31 03:30:46;;;;;;;7.80;3.42;;;23.60;56.70;;;;;;5011464;28;20022;-74
2022/07/31 03:33:11;;;;;;;8.25;3.60;;;23.60;56.70;;;;;;5011712;28;20533;-74
2022/07/31 03:35:37;;;;;;;7.22;3.35;;;23.60;56.60;;;;;;4977962;28;20038;-74
2022/07/31 03:38:04;;;;;;;8.60;3.55;;;23.70;56.90;;;;;;5011777;28;20060;-74
2022/07/31 03:40:32;;;;;;;7.35;3.55;;;23.60;56.70;;;;;;4995643;28;20026;-75
2022/07/31 03:43:00;;;;;;;7.80;3.83;;;23.60;56.90;;;;;;4994880;28;20052;-74
2022/07/31 03:45:28;;;;;;;7.63;3.78;;;23.60;57.30;;;;;;5010881;28;20022;-74
2022/07/31 03:47:54;;;;;;;5.57;3.33;;;23.60;56.90;;;;;;5011428;28;20087;-74
2022/07/31 03:50:21;;;;;;;7.97;3.58;;;23.50;56.70;;;;;;5012378;28;20455;-74
2022/07/31 03:52:47;;;;;;;8.48;4.07;;;23.60;57.10;;;;;;4995329;28;20121;-74
2022/07/31 03:55:14;;;;;;;9.00;3.88;;;23.60;56.90;;;;;;5010863;28;20033;-75
2022/07/31 03:57:41;;;;;;;5.75;3.75;;;23.50;56.80;;;;;;5011006;28;20033;-74
2022/07/31 04:00:08;;;;;;;9.82;3.92;;;23.50;56.70;;;;;;5011335;28;20080;-74
2022/07/31 04:02:42;;;;;;;9.48;4.45;;;23.50;56.90;;;;;;5012127;28;20486;-74
2022/07/31 04:05:31;;;;;;;7.20;3.83;;;23.50;57.00;;;;;;4966266;28;1102306;-74
2022/07/31 04:07:58;;;;;;;8.35;4.15;;;23.50;56.90;;;;;;4995460;28;20524;-74
2022/07/31 04:10:24;;;;;;;8.13;4.20;;;23.50;56.80;;;;;;5011984;28;20108;-74
2022/07/31 04:12:50;;;;;;;6.93;4.03;;;23.50;57.00;;;;;;5011904;28;20026;-74
2022/07/31 04:15:17;;;;;;;5.93;3.50;;;23.50;56.80;;;;;;5011745;28;20112;-74
2022/07/31 04:17:44;;;;;;;6.13;4.13;;;23.50;57.00;;;;;;4995521;28;20038;-74
2022/07/31 04:20:11;;;;;;;7.45;3.78;;;23.50;56.90;;;;;;5011377;28;20109;-74
2022/07/31 04:22:37;;;;;;;8.30;4.05;;;23.50;57.00;;;;;;5011874;28;20025;-74
2022/07/31 04:25:09;;;;;;;6.95;3.95;;;23.50;57.00;;;;;;5010744;28;20109;-74
2022/07/31 04:28:04;;;;;;;5.10;3.55;;;23.50;57.00;;;;;;4995894;28;20482;-75
2022/07/31 04:30:30;;;;;;;8.50;4.18;;;23.50;57.00;;;;;;5011321;28;20069;-75
2022/07/31 04:32:58;;;;;;;9.30;4.30;;;23.50;57.00;;;;;;4979331;28;20084;-74
2022/07/31 04:35:24;;;;;;;7.75;3.50;;;23.50;57.00;;;;;;5011090;28;20133;-74
2022/07/31 04:37:50;;;;;;;6.97;3.60;;;23.50;56.70;;;;;;5011584;28;20729;-74
2022/07/31 04:40:17;;;;;;;9.57;4.00;;;23.50;56.70;;;;;;5010303;28;20101;-74
2022/07/31 04:42:43;;;;;;;12.52;3.90;;;23.50;56.80;;;;;;4994540;28;20125;-74
2022/07/31 04:45:09;;;;;;;7.03;3.60;;;23.50;56.70;;;;;;5011211;28;20021;-75
2022/07/31 04:47:36;;;;;;;10.73;3.85;;;23.50;56.80;;;;;;5010706;28;20038;-74
2022/07/31 04:50:02;;;;;;;8.90;3.40;;;23.50;56.70;;;;;;5010959;28;20029;-74
2022/07/31 04:52:28;;;;;;;7.88;3.70;;;23.50;56.50;;;;;;5011537;28;20056;-74
2022/07/31 04:55:03;;;;;;;10.55;3.65;;;23.50;56.70;;;;;;5011495;28;20029;-75
2022/07/31 04:57:28;;;;;;;7.72;3.60;;;23.50;56.70;;;;;;5010946;28;20030;-74
2022/07/31 04:59:54;;;;;;;9.65;3.72;;;23.50;56.60;;;;;;4994974;28;20041;-74
2022/07/31 05:02:20;;;;;;;7.22;3.78;;;23.50;56.70;;;;;;5010831;28;20506;-74
2022/07/31 05:04:46;;;;;;;5.57;3.22;;;23.50;56.60;;;;;;5019426;23;20092;-73
2022/07/31 05:07:12;;;;;;;8.85;3.88;;;23.50;56.70;;;;;;5008002;28;20413;-73
2022/07/31 05:09:38;;;;;;;8.65;3.60;;;23.50;56.70;;;;;;5010195;28;20040;-73
2022/07/31 05:12:07;;;;;;;10.32;3.80;;;23.50;56.70;;;;;;5010935;28;20501;-73
2022/07/31 05:14:33;;;;;;;6.00;3.20;;;23.50;56.70;;;;;;5006211;28;20101;-74
2022/07/31 05:16:59;;;;;;;8.88;3.42;;;23.50;56.90;;;;;;4992650;28;20109;-73
2022/07/31 05:19:29;;;;;;;7.88;3.63;;;23.50;56.80;;;;;;4992666;28;20029;-73
2022/07/31 05:22:14;;;;;;;11.23;3.95;;;23.50;57.00;;;;;;5009274;28;20355;-73
2022/07/31 05:24:58;;;;;;;6.95;3.58;;;23.50;57.00;;;;;;5008948;28;20060;-73
2022/07/31 05:27:24;;;;;;;7.25;3.47;;;23.50;56.90;;;;;;5008500;28;20516;-73
2022/07/31 05:29:50;;;;;;;7.30;4.03;;;23.50;57.00;;;;;;5008274;28;20034;-74
2022/07/31 05:32:16;;;;;;;5.00;3.25;;;23.40;56.90;;;;;;5007669;28;20483;-73
2022/07/31 05:34:42;;;;;;;10.10;3.70;;;23.50;57.00;;;;;;4986877;28;20049;-71
2022/07/31 05:37:09;;;;;;;7.95;3.67;;;23.50;57.10;;;;;;4977383;28;20030;-73
2022/07/31 05:39:36;;;;;;;9.63;3.50;;;23.50;57.20;;;;;;4992746;28;20114;-72
2022/07/31 05:42:20;;;;;;;10.55;3.28;;;23.50;57.30;;;;;;4993656;28;20034;-72
2022/07/31 05:44:58;;;;;;;6.55;3.25;;;23.50;56.50;;;;;;4993583;28;20023;-72
2022/07/31 05:47:24;;;;;;;9.48;3.13;;;23.60;56.60;;;;;;4993042;28;20037;-72
2022/07/31 05:49:50;;;;;;;6.40;3.30;;;23.60;56.50;;;;;;4992095;28;20061;-73
2022/07/31 05:52:17;;;;;;;6.90;3.60;;;23.70;56.60;;;;;;4993318;28;20483;-72
2022/07/31 05:54:45;;;;;;;8.02;3.50;;;23.60;56.50;;;;;;4993256;28;20103;-72
2022/07/31 05:57:30;;;;;;;7.20;3.47;;;23.70;56.60;;;;;;4994126;28;20031;-72
2022/07/31 05:59:55;;;;;;;7.53;3.17;;;23.70;56.30;;;;;;4996111;28;20053;-72
2022/07/31 06:02:21;;;;;;;6.10;3.05;;;23.70;56.20;;;;;;4997093;28;20444;-72
2022/07/31 06:05:03;;;;;;;8.68;2.92;;;23.70;56.20;;;;;;4996930;28;20483;-72
2022/07/31 06:07:30;;;;;;;6.88;3.30;;;23.70;56.20;;;;;;4999984;28;20052;-72
2022/07/31 06:09:56;;;;;;;8.93;3.75;;;23.70;56.30;;;;;;5011236;28;20026;-72
2022/07/31 06:12:21;;;;;;;4.47;2.85;;;23.80;56.20;;;;;;4993113;28;20025;-72
2022/07/31 06:14:47;;;;;;;6.15;3.20;;;23.80;56.20;;;;;;4996806;28;20044;-72
2022/07/31 06:17:20;;;;;;;6.40;3.30;;;23.80;56.20;;;;;;4997994;28;20621;-73
2022/07/31 06:19:47;;;;;;;4.97;2.90;;;23.80;56.10;;;;;;4995878;28;20034;-72
2022/07/31 06:22:13;;;;;;;7.25;3.60;;;23.80;56.20;;;;;;4996764;28;20490;-72
2022/07/31 06:24:39;;;;;;;9.63;3.65;;;23.80;56.50;;;;;;4990686;28;20037;-71
2022/07/31 06:27:06;;;;;;;10.80;3.55;;;23.80;56.20;;;;;;4979053;28;20553;-72
2022/07/31 06:29:32;;;;;;;5.65;2.92;;;23.80;56.30;;;;;;5002323;28;20101;-72
2022/07/31 06:31:59;;;;;;;5.97;3.40;;;23.80;56.60;;;;;;5011214;28;20041;-72
2022/07/31 06:34:25;;;;;;;6.38;2.67;;;23.80;56.20;;;;;;5012252;28;20026;-72
2022/07/31 06:36:50;;;;;;;5.57;2.75;;;23.80;56.20;;;;;;5010173;28;20027;-72
2022/07/31 06:39:20;;;;;;;10.43;3.53;;;23.80;56.60;;;;;;5011636;28;20026;-72
2022/07/31 06:41:46;;;;;;;5.50;3.20;;;23.80;56.20;;;;;;4997537;28;20394;-72
2022/07/31 06:44:44;;;;;;;7.10;3.38;;;23.80;56.30;;;;;;4985653;28;20040;-72
2022/07/31 06:47:28;;;;;;;7.78;3.25;;;23.80;56.40;;;;;;4996216;28;20027;-72
2022/07/31 06:50:08;;;;;;;4.72;2.65;;;23.80;56.60;;;;;;5002410;28;20034;-72
2022/07/31 06:52:39;;;;;;;5.80;2.88;;;23.80;56.40;;;;;;4999867;28;20038;-72
2022/07/31 06:55:06;;;;;;;6.18;2.60;;;23.80;57.10;;;;;;4980256;28;20088;-72
2022/07/31 06:57:32;;;;;;;7.45;3.13;;;23.80;56.50;;;;;;4996140;28;20105;-72
2022/07/31 06:59:58;;;;;;;17.38;3.78;;;23.90;56.70;;;;;;4979015;28;20026;-72
2022/07/31 07:02:24;;;;;;;7.57;3.08;;;23.90;57.30;;;;;;4996015;28;20053;-72
2022/07/31 07:04:50;;;;;;;4.97;2.53;;;23.90;57.20;;;;;;4994856;28;20511;-72
2022/07/31 07:07:17;;;;;;;4.60;2.75;;;23.90;57.20;;;;;;5009287;28;20042;-72
2022/07/31 07:09:43;;;;;;;9.02;3.47;;;23.90;57.40;;;;;;5009713;28;20080;-72
2022/07/31 07:12:13;;;;;;;5.72;2.85;;;23.90;57.10;;;;;;5011966;28;20120;-71
2022/07/31 07:14:39;;;;;;;10.25;3.30;;;23.90;57.10;;;;;;5010025;28;20105;-72
2022/07/31 07:17:05;;;;;;;4.63;2.88;;;23.90;57.20;;;;;;5009808;28;20061;-72
2022/07/31 07:19:31;;;;;;;4.63;2.58;;;23.90;57.50;;;;;;5011561;28;20026;-72
2022/07/31 07:21:58;;;;;;;5.88;2.97;;;23.90;57.40;;;;;;5012342;28;20106;-72
2022/07/31 07:24:23;;;;;;;7.72;3.10;;;23.90;57.30;;;;;;5011151;28;20120;-72
2022/07/31 07:27:00;;;;;;;9.25;2.90;;;23.90;57.30;;;;;;5004579;28;20077;-72
2022/07/31 07:29:26;;;;;;;5.90;3.15;;;23.90;57.50;;;;;;4995561;28;20479;-73
2022/07/31 07:31:52;;;;;;;7.03;3.50;;;23.90;58.00;;;;;;4994605;28;20491;-72
2022/07/31 07:34:18;;;;;;;5.90;3.13;;;23.90;57.50;;;;;;4995363;28;20025;-71
2022/07/31 07:36:44;;;;;;;4.90;3.00;;;24.00;57.60;;;;;;4995223;28;20438;-72
2022/07/31 07:39:21;;;;;;;6.40;3.00;;;24.00;57.60;;;;;;5003953;28;20033;-72
2022/07/31 07:41:47;;;;;;;9.35;3.10;;;24.00;57.60;;;;;;5012280;28;20482;-71
2022/07/31 07:44:13;;;;;;;7.40;3.00;;;24.00;57.60;;;;;;4999575;28;20092;-72
2022/07/31 07:46:39;;;;;;;13.40;3.20;;;24.00;57.70;;;;;;4993882;28;20026;-72
2022/07/31 07:49:07;;;;;;;5.65;2.90;;;24.00;57.70;;;;;;4995242;28;20478;-71
2022/07/31 07:51:38;;;;;;;5.55;3.08;;;24.00;57.60;;;;;;4995390;28;20034;-71
2022/07/31 07:54:33;;;;;;;8.00;3.47;;;24.00;57.60;;;;;;4977126;28;20042;-72
2022/07/31 07:57:19;;;;;;;7.35;3.22;;;24.00;57.50;;;;;;4995198;28;20475;-72
2022/07/31 08:00:06;;;;;;;7.25;2.95;;;24.00;57.70;;;;;;5006062;28;20037;-70
2022/07/31 08:02:51;;;;;;;5.63;3.00;;;24.00;57.70;;;;;;5011196;28;20101;-71
2022/07/31 08:05:17;;;;;;;10.35;3.65;;;24.10;57.70;;;;;;5008501;28;20117;-71
2022/07/31 08:07:46;;;;;;;14.07;3.28;;;24.10;57.50;;;;;;5010892;28;20091;-71
2022/07/31 08:10:30;;;;;;;9.45;3.75;;;24.10;57.40;;;;;;4997304;28;20033;-71
2022/07/31 08:13:10;;;;;;;9.10;4.13;;;24.30;57.70;;;;;;4995319;28;20030;-71
2022/07/31 08:15:54;;;;;;;8.60;4.53;;;24.30;58.30;;;;;;4995575;28;20475;-72
2022/07/31 08:18:30;;;;;;;10.32;4.07;;;24.30;59.20;;;;;;4995120;28;20033;-71
2022/07/31 08:20:56;;;;;;;11.63;3.92;;;24.40;58.60;;;;;;5005466;28;20034;-71
2022/07/31 08:23:22;;;;;;;11.25;3.40;;;24.40;58.20;;;;;;5011251;28;20486;-72
2022/07/31 08:25:48;;;;;;;12.15;6.10;;;24.40;57.90;;;;;;4992388;28;20030;-72
2022/07/31 08:28:15;;;;;;;10.70;5.85;;;24.30;57.70;;;;;;5011409;28;20041;-72
2022/07/31 08:30:41;;;;;;;16.23;6.05;;;24.30;57.70;;;;;;5011972;28;20542;-71
2022/07/31 08:33:09;;;;;;;11.85;5.45;;;24.30;57.30;;;;;;4996454;28;20034;-72
2022/07/31 08:35:39;;;;;;;10.00;4.68;;;24.30;57.30;;;;;;5011749;28;20037;-73
2022/07/31 08:38:05;;;;;;;11.88;5.35;;;24.30;57.20;;;;;;4983208;28;20030;-72
2022/07/31 08:40:51;;;;;;;8.90;4.40;;;24.30;57.10;;;;;;4993445;28;20100;-73
2022/07/31 08:43:17;;;;;;;10.27;4.32;;;24.30;56.90;;;;;;4994218;28;20479;-73
2022/07/31 08:45:44;;;;;;;14.00;4.13;;;24.30;56.90;;;;;;4977789;28;20387;-73
2022/07/31 08:48:24;;;;;;;23.27;3.88;;;24.30;56.80;;;;;;4993148;28;20077;-72
2022/07/31 08:50:53;;;;;;;11.98;4.20;;;24.40;56.60;;;;;;4997502;28;20506;-72
2022/07/31 08:53:42;;;;;;;9.65;3.78;;;24.40;56.40;;;;;;4997856;28;20035;-72
2022/07/31 08:56:18;;;;;;;9.57;4.47;;;24.30;56.40;;;;;;4992831;28;20030;-72
2022/07/31 08:58:44;;;;;;;10.35;3.40;;;24.30;56.30;;;;;;4992976;28;20066;-72
2022/07/31 09:01:13;;;;;;;12.52;3.83;;;24.40;56.50;;;;;;4994077;28;20498;-72
2022/07/31 09:03:40;;;;;;;13.27;3.60;;;24.40;56.60;;;;;;4991049;28;20062;-72
2022/07/31 09:06:09;;;;;;;17.90;3.95;;;24.40;57.10;;;;;;4993767;28;20482;-72
2022/07/31 09:08:36;;;;;;;7.07;3.30;;;24.50;56.70;;;;;;5006087;28;20030;-73
2022/07/31 09:11:08;;;;;;;9.88;3.45;;;24.50;56.20;;;;;;4991776;28;20030;-72
2022/07/31 09:13:56;;;;;;;5.47;2.83;;;24.50;55.80;;;;;;4992701;28;20026;-72
2022/07/31 09:16:46;;;;;;;9.57;3.53;;;24.50;55.60;;;;;;5001476;28;20033;-73
2022/07/31 09:19:13;;;;;;;34.25;6.60;;;24.50;56.20;;;;;;4961219;28;20037;-73
2022/07/31 09:21:41;;;;;;;43.78;7.28;;;24.60;65.80;;;;;;4993678;28;20107;-72
2022/07/31 09:24:09;;;;;;;19.23;5.40;;;24.60;67.90;;;;;;4993837;28;20033;-73
2022/07/31 09:26:36;;;;;;;24.60;5.75;;;24.60;61.50;;;;;;4993163;28;20106;-74
2022/07/31 09:29:07;;;;;;;15.48;4.30;;;24.60;64.30;;;;;;4993480;28;20026;-74
2022/07/31 09:31:34;;;;;;;13.32;3.53;;;24.60;59.60;;;;;;4992559;28;20390;-73
2022/07/31 09:34:26;;;;;;;9.00;3.25;;;24.60;58.30;;;;;;5004973;28;20026;-74
2022/07/31 09:37:10;;;;;;;11.13;4.82;;;24.60;58.40;;;;;;4988289;28;20069;-74
2022/07/31 09:39:56;;;;;;;7.93;3.58;;;24.60;57.40;;;;;;5012106;28;20022;-74
2022/07/31 09:42:44;;;;;;;8.40;3.20;;;24.60;57.90;;;;;;5012222;28;20080;-74
2022/07/31 09:45:22;;;;;;;3.67;2.95;;;24.60;57.00;;;;;;5010669;28;20033;-73
2022/07/31 09:48:07;;;;;;;8.23;3.58;;;24.50;56.90;;;;;;5010907;28;20445;-72
2022/07/31 09:50:33;;;;;;;10.55;3.72;;;24.50;56.70;;;;;;5010915;28;20049;-72
2022/07/31 09:53:00;;;;;;;8.32;3.28;;;24.50;57.00;;;;;;4994683;28;20044;-72
2022/07/31 09:55:27;;;;;;;7.00;3.60;;;24.50;56.90;;;;;;5009031;28;20072;-72
2022/07/31 09:57:58;;;;;;;5.93;3.23;;;24.60;57.80;;;;;;5001109;28;20046;-73
2022/07/31 10:00:27;;;;;;;5.75;3.05;;;24.50;57.20;;;;;;4991232;28;20033;-74
2022/07/31 10:02:55;;;;;;;8.60;3.55;;;24.50;56.60;;;;;;5024123;28;20041;-74
2022/07/31 10:05:26;;;;;;;5.93;3.40;;;24.50;56.80;;;;;;5008685;28;20022;-74
2022/07/31 10:08:03;;;;;;;7.22;3.10;;;24.50;56.90;;;;;;4997035;28;20113;-73
2022/07/31 10:10:48;;;;;;;5.72;3.28;;;24.50;56.90;;;;;;4998416;28;20493;-73
2022/07/31 10:13:22;;;;;;;5.50;3.00;;;24.50;56.70;;;;;;5010669;28;20044;-73
2022/07/31 10:15:52;;;;;;;6.35;3.13;;;24.60;56.50;;;;;;4992243;28;20034;-73
2022/07/31 10:18:46;;;;;;;8.32;3.70;;;24.50;56.50;;;;;;4990713;28;20038;-73
2022/07/31 10:21:40;;;;;;;8.40;3.25;;;24.50;56.40;;;;;;4992969;28;20038;-73
2022/07/31 10:24:13;;;;;;;6.50;3.17;;;24.50;56.50;;;;;;4991943;28;20418;-72
2022/07/31 10:26:41;;;;;;;7.88;3.80;;;24.50;56.40;;;;;;4992857;28;20065;-72
2022/07/31 10:29:07;;;;;;;11.65;3.30;;;24.50;56.80;;;;;;4993005;28;20479;-71
2022/07/31 10:31:33;;;;;;;8.68;3.17;;;24.50;57.00;;;;;;4991875;28;20127;-73
2022/07/31 10:34:01;;;;;;;11.07;3.67;;;24.50;57.20;;;;;;4976621;28;20034;-72
2022/07/31 10:37:01;;;;;;;13.13;3.47;;;24.50;57.50;;;;;;4974208;28;20043;-73
2022/07/31 10:40:06;;;;;;;;;;;24.50;57.00;;;;;;4977442;28;20034;-73
2022/07/31 10:42:44;;;;;;;6.00;3.25;;;24.50;56.10;;;;;;4993077;28;19936;-74
2022/07/31 10:45:12;;;;;;;5.82;3.22;;;24.60;56.50;;;;;;5000014;28;20057;-73
2022/07/31 10:48:00;;;;;;;9.53;3.63;;;24.60;55.40;;;;;;4995495;28;20143;-71
2022/07/31 10:50:47;;;;;;;6.13;3.47;;;24.60;55.20;;;;;;4996800;28;20757;-72
2022/07/31 10:53:21;;;;;;;4.50;3.03;;;24.70;55.10;;;;;;5013910;28;20052;-72
2022/07/31 10:56:11;;;;;;;6.55;3.00;;;24.70;55.10;;;;;;5010291;28;20068;-72
2022/07/31 10:58:56;;;;;;;4.93;2.72;;;24.70;54.50;;;;;;5006375;28;20045;-72
2022/07/31 11:01:53;;;;;;;8.73;3.10;;;24.70;54.20;;;;;;4985564;28;20085;-72
2022/07/31 11:04:38;;;;;;;7.95;3.00;;;24.70;54.10;;;;;;4995004;28;20030;-72
2022/07/31 11:07:18;;;;;;;8.15;2.60;;;24.70;54.00;;;;;;4977662;28;20497;-72
2022/07/31 11:10:19;;;;;;;5.55;3.08;;;24.60;53.70;;;;;;4979542;28;20447;-72
2022/07/31 11:13:09;;;;;;;6.15;3.17;;;24.60;53.20;;;;;;4995440;28;20487;-72
2022/07/31 11:16:05;;;;;;;4.82;2.90;;;24.70;53.30;;;;;;5012685;28;20045;-72
2022/07/31 11:19:03;;;;;;;7.67;3.60;;;24.60;53.10;;;;;;4998543;28;20058;-72
2022/07/31 11:21:38;;;;;;;6.35;2.95;;;24.60;54.20;;;;;;5013803;28;20045;-72
2022/07/31 11:24:22;;;;;;;4.20;2.90;;;24.60;53.80;;;;;;4995904;28;20105;-72
2022/07/31 11:26:48;;;;;;;9.55;3.50;;;24.60;54.40;;;;;;5012001;28;20034;-72
2022/07/31 11:29:28;;;;;;;7.22;3.35;;;24.60;54.10;;;;;;5005374;28;20034;-72
2022/07/31 11:31:54;;;;;;;10.95;3.00;;;24.60;54.30;;;;;;4997628;28;20088;-72
2022/07/31 11:34:20;;;;;;;9.45;4.72;;;24.60;54.50;;;;;;5005103;23;21577;-72
2022/07/31 11:36:46;;;;;;;6.95;3.90;;;24.60;54.40;;;;;;5024998;28;20121;-72
2022/07/31 11:39:12;;;;;;;5.82;3.70;;;24.60;54.30;;;;;;5016251;28;20029;-72
2022/07/31 11:41:38;;;;;;;6.68;3.47;;;24.60;54.30;;;;;;5032974;28;20044;-72
2022/07/31 11:44:04;;;;;;;9.43;3.80;;;24.60;54.30;;;;;;5030996;28;20025;-72
2022/07/31 11:46:32;;;;;;;6.57;3.00;;;24.60;54.50;;;;;;5030622;28;20247;-72
2022/07/31 11:48:59;;;;;;;4.95;3.40;;;24.60;54.30;;;;;;5029092;28;20040;-72
2022/07/31 11:51:26;;;;;;;5.75;3.20;;;24.60;54.10;;;;;;5031776;28;20114;-72
2022/07/31 11:53:56;;;;;;;10.63;3.58;;;24.60;54.60;;;;;;5029597;28;20025;-71
2022/07/31 11:56:22;;;;;;;;;;;24.60;53.90;;;;;;5029342;28;20029;-72
2022/07/31 11:58:53;;;;;;;6.38;2.95;;;24.60;53.80;;;;;;5027504;28;19916;-71
2022/07/31 12:01:26;;;;;;;4.72;3.25;;;24.60;53.80;;;;;;5013616;28;20035;-71
2022/07/31 12:03:51;;;;;;;5.45;3.30;;;24.60;53.70;;;;;;4996460;28;20030;-72
2022/07/31 12:06:19;;;;;;;5.95;3.17;;;24.60;53.60;;;;;;5012102;28;20121;-72
2022/07/31 12:08:49;;;;;;;8.00;3.05;;;24.70;53.50;;;;;;4996338;28;20088;-72
2022/07/31 12:11:18;;;;;;;5.03;2.90;;;24.70;53.20;;;;;;5013511;28;20490;-72
2022/07/31 12:13:48;;;;;;;6.13;3.30;;;24.70;53.10;;;;;;5013606;28;20061;-71
2022/07/31 12:16:15;;;;;;;6.35;3.10;;;24.60;53.00;;;;;;5025330;28;20025;-72
2022/07/31 12:18:52;;;;;;;6.40;3.08;;;24.70;53.40;;;;;;5015436;28;20108;-72
2022/07/31 12:21:19;;;;;;;6.18;3.03;;;24.60;53.30;;;;;;5014513;28;20088;-71
2022/07/31 12:23:50;;;;;;;4.18;2.90;;;24.60;53.40;;;;;;5018487;28;20033;-72
2022/07/31 12:26:28;;;;;;;7.00;3.30;;;24.60;53.40;;;;;;5011566;28;20022;-72
2022/07/31 12:29:02;;;;;;;7.93;3.30;;;24.60;53.30;;;;;;5012132;28;20032;-72
2022/07/31 12:31:31;;;;;;;6.95;3.78;;;24.60;53.40;;;;;;5013235;28;20025;-72
2022/07/31 12:33:57;;;;;;;5.38;3.47;;;24.60;53.50;;;;;;5015996;28;20397;-73
2022/07/31 12:36:22;;;;;;;7.60;3.83;;;24.60;53.70;;;;;;5012468;28;20029;-73
2022/07/31 12:38:59;;;;;;;8.85;3.80;;;24.50;53.80;;;;;;5024286;28;20069;-72
2022/07/31 12:41:29;;;;;;;11.02;3.53;;;24.60;53.90;;;;;;5015778;28;20108;-72
2022/07/31 12:44:08;;;;;;;7.10;3.30;;;24.60;54.00;;;;;;5012269;28;20054;-72
2022/07/31 12:46:38;;;;;;;9.13;3.45;;;24.60;54.40;;;;;;5002393;28;20022;-72
2022/07/31 12:49:05;;;;;;;5.65;3.10;;;24.60;54.70;;;;;;5014192;28;20056;-72
2022/07/31 12:51:32;;;;;;;7.10;2.90;;;24.60;54.50;;;;;;5020384;28;20022;-71
2022/07/31 12:53:58;;;;;;;8.73;3.17;;;24.60;54.70;;;;;;5013124;28;20030;-71
2022/07/31 12:56:24;;;;;;;8.05;3.38;;;24.60;54.70;;;;;;5024261;28;20096;-71
2022/07/31 12:58:49;;;;;;;9.88;3.45;;;24.70;55.00;;;;;;5012690;28;20564;-72
2022/07/31 13:01:15;;;;;;;7.47;3.53;;;24.80;55.50;;;;;;5012684;28;20482;-72
2022/07/31 13:03:41;;;;;;;8.63;4.00;;;24.80;55.30;;;;;;5013596;28;20028;-72
2022/07/31 13:06:07;;;;;;;15.32;4.38;;;24.80;54.60;;;;;;5019299;28;20482;-71